sensor_id;sensor_type;location;lat;lon;timestamp;pressure;altitude;pressure_sealevel;temperature;humidity
8286;BME280;4181;43.416;24.598;2023-02-20T00:00:07;100206.28;;;14.06;100.00
8286;BME280;4181;43.416;24.598;2023-02-20T00:02:33;100210.16;;;14.15;100.00
8286;BME280;4181;43.416;24.598;2023-02-20T00:04:58;100191.19;;;13.93;100.00
8286;BME280;4181;43.416;24.598;2023-02-20T00:07:24;100217.28;;;14.16;100.00
8286;BME280;4181;43.416;24.598;2023-02-20T00:09:49;100218.94;;;14.12;100.00
8286;BME280;4181;43.416;24.598;2023-02-20T00:12:15;100216.19;;;14.12;100.00
8286;BME280;4181;43.416;24.598;2023-02-20T00:14:40;100211.50;;;14.07;100.00
8286;BME280;4181;43.416;24.598;2023-02-20T00:17:05;100226.59;;;14.05;100.00
8286;BME280;4181;43.416;24.598;2023-02-20T00:19:31;100194.78;;;13.93;100.00
8286;BME280;4181;43.416;24.598;2023-02-20T00:21:56;100201.91;;;13.94;100.00
8286;BME280;4181;43.416;24.598;2023-02-20T00:24:22;100214.22;;;13.87;100.00
8286;BME280;4181;43.416;24.598;2023-02-20T00:26:49;100221.66;;;14.02;100.00
8286;BME280;4181;43.416;24.598;2023-02-20T00:29:16;100217.78;;;13.92;100.00
8286;BME280;4181;43.416;24.598;2023-02-20T00:31:42;100219.47;;;13.98;100.00
8286;BME280;4181;43.416;24.598;2023-02-20T00:34:07;100209.53;;;13.77;100.00
8286;BME280;4181;43.416;24.598;2023-02-20T00:36:33;100211.69;;;13.70;100.00
8286;BME280;4181;43.416;24.598;2023-02-20T00:38:58;100221.03;;;13.74;100.00
8286;BME280;4181;43.416;24.598;2023-02-20T00:41:24;100215.56;;;13.74;100.00
8286;BME280;4181;43.416;24.598;2023-02-20T00:43:49;100208.66;;;13.67;100.00
8286;BME280;4181;43.416;24.598;2023-02-20T00:46:15;100227.63;;;13.68;100.00
8286;BME280;4181;43.416;24.598;2023-02-20T00:48:44;100225.69;;;13.69;100.00
8286;BME280;4181;43.416;24.598;2023-02-20T00:51:10;100219.59;;;13.57;100.00
8286;BME280;4181;43.416;24.598;2023-02-20T00:53:35;100217.13;;;13.55;100.00
8286;BME280;4181;43.416;24.598;2023-02-20T00:56:01;100227.84;;;13.62;100.00
8286;BME280;4181;43.416;24.598;2023-02-20T00:58:30;100223.19;;;13.57;100.00
8286;BME280;4181;43.416;24.598;2023-02-20T01:00:56;100220.69;;;13.51;100.00
8286;BME280;4181;43.416;24.598;2023-02-20T01:03:21;100216.06;;;13.61;100.00
8286;BME280;4181;43.416;24.598;2023-02-20T01:05:47;100212.97;;;13.38;100.00
8286;BME280;4181;43.416;24.598;2023-02-20T01:08:12;100209.34;;;13.27;100.00
8286;BME280;4181;43.416;24.598;2023-02-20T01:10:38;100207.22;;;13.39;100.00
8286;BME280;4181;43.416;24.598;2023-02-20T01:13:03;100214.91;;;13.42;100.00
8286;BME280;4181;43.416;24.598;2023-02-20T01:15:28;100223.97;;;13.48;100.00
8286;BME280;4181;43.416;24.598;2023-02-20T01:17:54;100221.19;;;13.38;100.00
8286;BME280;4181;43.416;24.598;2023-02-20T01:20:19;100237.56;;;13.28;100.00
8286;BME280;4181;43.416;24.598;2023-02-20T01:22:45;100214.53;;;13.24;100.00
8286;BME280;4181;43.416;24.598;2023-02-20T01:25:10;100203.22;;;13.10;100.00
8286;BME280;4181;43.416;24.598;2023-02-20T01:27:36;100209.91;;;13.29;100.00
8286;BME280;4181;43.416;24.598;2023-02-20T01:30:01;100234.91;;;13.43;100.00
8286;BME280;4181;43.416;24.598;2023-02-20T01:32:27;100218.66;;;13.21;100.00
8286;BME280;4181;43.416;24.598;2023-02-20T01:34:52;100228.25;;;13.29;100.00
8286;BME280;4181;43.416;24.598;2023-02-20T01:37:17;100224.97;;;13.27;100.00
8286;BME280;4181;43.416;24.598;2023-02-20T01:39:46;100225.53;;;13.34;100.00
8286;BME280;4181;43.416;24.598;2023-02-20T01:42:17;100232.97;;;13.33;100.00
8286;BME280;4181;43.416;24.598;2023-02-20T01:44:43;100241.69;;;13.30;100.00
8286;BME280;4181;43.416;24.598;2023-02-20T01:47:15;100240.34;;;13.33;100.00
8286;BME280;4181;43.416;24.598;2023-02-20T01:49:48;100223.59;;;13.29;100.00
8286;BME280;4181;43.416;24.598;2023-02-20T01:52:22;100232.94;;;13.28;100.00
8286;BME280;4181;43.416;24.598;2023-02-20T01:54:54;100231.81;;;13.24;100.00
8286;BME280;4181;43.416;24.598;2023-02-20T01:57:23;100236.19;;;13.30;100.00
8286;BME280;4181;43.416;24.598;2023-02-20T01:59:53;100196.38;;;13.08;100.00
8286;BME280;4181;43.416;24.598;2023-02-20T02:02:24;100217.78;;;13.16;100.00
8286;BME280;4181;43.416;24.598;2023-02-20T02:04:50;100223.78;;;13.08;100.00
8286;BME280;4181;43.416;24.598;2023-02-20T02:07:16;100210.31;;;13.01;100.00
8286;BME280;4181;43.416;24.598;2023-02-20T02:09:52;100237.50;;;13.13;100.00
8286;BME280;4181;43.416;24.598;2023-02-20T02:12:21;100250.34;;;13.12;100.00
8286;BME280;4181;43.416;24.598;2023-02-20T02:14:47;100253.66;;;13.14;100.00
8286;BME280;4181;43.416;24.598;2023-02-20T02:46:06;100297.81;;;12.86;100.00
8286;BME280;4181;43.416;24.598;2023-02-20T02:48:36;100313.97;;;12.88;100.00
8286;BME280;4181;43.416;24.598;2023-02-20T02:51:12;100330.94;;;12.85;100.00
8286;BME280;4181;43.416;24.598;2023-02-20T02:53:40;100346.53;;;12.84;100.00
8286;BME280;4181;43.416;24.598;2023-02-20T02:56:05;100343.66;;;12.69;100.00
8286;BME280;4181;43.416;24.598;2023-02-20T02:58:50;100368.66;;;12.77;100.00
8286;BME280;4181;43.416;24.598;2023-02-20T03:01:19;100350.41;;;12.88;100.00
8286;BME280;4181;43.416;24.598;2023-02-20T03:03:47;100324.00;;;12.77;100.00
8286;BME280;4181;43.416;24.598;2023-02-20T03:06:24;100352.09;;;12.94;100.00
8286;BME280;4181;43.416;24.598;2023-02-20T03:09:02;100359.44;;;12.89;100.00
8286;BME280;4181;43.416;24.598;2023-02-20T03:11:31;100349.28;;;12.84;100.00
8286;BME280;4181;43.416;24.598;2023-02-20T03:14:02;100348.22;;;12.85;100.00
8286;BME280;4181;43.416;24.598;2023-02-20T03:19:38;100329.22;;;12.78;100.00
8286;BME280;4181;43.416;24.598;2023-02-20T03:22:12;100316.75;;;12.61;100.00
8286;BME280;4181;43.416;24.598;2023-02-20T03:24:42;100324.97;;;12.61;100.00
8286;BME280;4181;43.416;24.598;2023-02-20T03:27:32;100323.25;;;12.50;100.00
8286;BME280;4181;43.416;24.598;2023-02-20T03:30:07;100331.69;;;12.48;100.00
8286;BME280;4181;43.416;24.598;2023-02-20T03:32:35;100328.50;;;12.30;100.00
8286;BME280;4181;43.416;24.598;2023-02-20T03:35:22;100344.97;;;12.35;100.00
8286;BME280;4181;43.416;24.598;2023-02-20T03:38:09;100355.88;;;12.30;100.00
8286;BME280;4181;43.416;24.598;2023-02-20T03:40:55;100348.09;;;12.22;100.00
8286;BME280;4181;43.416;24.598;2023-02-20T03:43:40;100350.88;;;12.27;100.00
8286;BME280;4181;43.416;24.598;2023-02-20T03:46:10;100346.91;;;12.13;100.00
8286;BME280;4181;43.416;24.598;2023-02-20T03:51:06;100342.22;;;12.08;100.00
8286;BME280;4181;43.416;24.598;2023-02-20T03:53:32;100337.44;;;11.99;100.00
8286;BME280;4181;43.416;24.598;2023-02-20T03:56:00;100362.16;;;12.09;100.00
8286;BME280;4181;43.416;24.598;2023-02-20T03:58:28;100361.00;;;12.00;100.00
8286;BME280;4181;43.416;24.598;2023-02-20T04:00:57;100366.25;;;12.06;100.00
8286;BME280;4181;43.416;24.598;2023-02-20T04:03:29;100367.69;;;12.14;100.00
8286;BME280;4181;43.416;24.598;2023-02-20T04:05:57;100353.31;;;12.02;100.00
8286;BME280;4181;43.416;24.598;2023-02-20T04:08:31;100378.13;;;12.17;100.00
8286;BME280;4181;43.416;24.598;2023-02-20T04:11:03;100380.31;;;12.15;100.00
8286;BME280;4181;43.416;24.598;2023-02-20T04:13:31;100387.94;;;12.13;100.00
8286;BME280;4181;43.416;24.598;2023-02-20T04:16:00;100389.00;;;12.12;100.00
8286;BME280;4181;43.416;24.598;2023-02-20T04:18:26;100385.78;;;12.15;100.00
8286;BME280;4181;43.416;24.598;2023-02-20T04:20:54;100363.66;;;11.95;100.00
8286;BME280;4181;43.416;24.598;2023-02-20T04:23:22;100388.66;;;12.03;100.00
8286;BME280;4181;43.416;24.598;2023-02-20T04:25:56;100377.81;;;11.92;100.00
8286;BME280;4181;43.416;24.598;2023-02-20T04:28:23;100378.41;;;11.94;100.00
8286;BME280;4181;43.416;24.598;2023-02-20T04:30:50;100373.44;;;11.91;100.00
8286;BME280;4181;43.416;24.598;2023-02-20T04:33:16;100383.34;;;11.97;100.00
8286;BME280;4181;43.416;24.598;2023-02-20T04:35:42;100393.16;;;11.93;100.00
8286;BME280;4181;43.416;24.598;2023-02-20T04:38:08;100389.19;;;11.84;100.00
8286;BME280;4181;43.416;24.598;2023-02-20T04:40:34;100371.22;;;11.66;100.00
8286;BME280;4181;43.416;24.598;2023-02-20T04:43:00;100393.28;;;11.81;100.00
8286;BME280;4181;43.416;24.598;2023-02-20T04:45:27;100420.69;;;11.86;100.00
8286;BME280;4181;43.416;24.598;2023-02-20T04:47:52;100398.09;;;11.74;100.00
8286;BME280;4181;43.416;24.598;2023-02-20T04:50:22;100423.75;;;11.90;100.00
8286;BME280;4181;43.416;24.598;2023-02-20T04:52:48;100406.28;;;11.74;100.00
8286;BME280;4181;43.416;24.598;2023-02-20T04:55:14;100439.16;;;11.79;100.00
8286;BME280;4181;43.416;24.598;2023-02-20T04:57:40;100448.03;;;11.86;100.00
8286;BME280;4181;43.416;24.598;2023-02-20T05:00:06;100445.16;;;11.76;100.00
8286;BME280;4181;43.416;24.598;2023-02-20T05:02:36;100461.28;;;11.78;100.00
8286;BME280;4181;43.416;24.598;2023-02-20T05:05:03;100462.28;;;11.72;100.00
8286;BME280;4181;43.416;24.598;2023-02-20T05:07:28;100462.28;;;11.72;100.00
8286;BME280;4181;43.416;24.598;2023-02-20T05:09:54;100479.69;;;11.66;100.00
8286;BME280;4181;43.416;24.598;2023-02-20T05:12:19;100485.91;;;11.78;100.00
8286;BME280;4181;43.416;24.598;2023-02-20T05:14:45;100485.16;;;11.66;100.00
8286;BME280;4181;43.416;24.598;2023-02-20T05:17:10;100490.25;;;11.62;100.00
8286;BME280;4181;43.416;24.598;2023-02-20T05:19:36;100500.13;;;11.63;100.00
8286;BME280;4181;43.416;24.598;2023-02-20T05:22:01;100494.00;;;11.56;100.00
8286;BME280;4181;43.416;24.598;2023-02-20T05:24:47;100496.91;;;11.49;100.00
8286;BME280;4181;43.416;24.598;2023-02-20T05:27:14;100514.13;;;11.67;100.00
8286;BME280;4181;43.416;24.598;2023-02-20T05:29:44;100498.97;;;11.76;100.00
8286;BME280;4181;43.416;24.598;2023-02-20T05:32:10;100485.31;;;11.76;100.00
8286;BME280;4181;43.416;24.598;2023-02-20T05:34:36;100496.84;;;12.16;100.00
8286;BME280;4181;43.416;24.598;2023-02-20T05:37:01;100472.47;;;12.14;100.00
8286;BME280;4181;43.416;24.598;2023-02-20T05:39:26;100483.75;;;12.18;100.00
8286;BME280;4181;43.416;24.598;2023-02-20T05:41:52;100509.22;;;12.40;100.00
8286;BME280;4181;43.416;24.598;2023-02-20T05:44:17;100502.44;;;12.69;100.00
8286;BME280;4181;43.416;24.598;2023-02-20T05:46:43;100488.50;;;12.70;100.00
8286;BME280;4181;43.416;24.598;2023-02-20T05:49:10;100504.50;;;12.84;100.00
8286;BME280;4181;43.416;24.598;2023-02-20T05:51:36;100514.19;;;13.13;100.00
8286;BME280;4181;43.416;24.598;2023-02-20T05:54:02;100517.47;;;13.41;100.00
8286;BME280;4181;43.416;24.598;2023-02-20T05:56:28;100521.44;;;13.55;100.00
8286;BME280;4181;43.416;24.598;2023-02-20T05:58:54;100504.59;;;13.73;100.00
8286;BME280;4181;43.416;24.598;2023-02-20T06:01:23;100512.03;;;13.78;100.00
8286;BME280;4181;43.416;24.598;2023-02-20T06:03:49;100497.59;;;13.92;100.00
8286;BME280;4181;43.416;24.598;2023-02-20T06:06:15;100512.25;;;14.08;100.00
8286;BME280;4181;43.416;24.598;2023-02-20T06:08:41;100496.31;;;14.05;100.00
8286;BME280;4181;43.416;24.598;2023-02-20T06:11:08;100516.94;;;14.18;100.00
8286;BME280;4181;43.416;24.598;2023-02-20T06:13:34;100519.84;;;14.38;100.00
8286;BME280;4181;43.416;24.598;2023-02-20T06:16:00;100502.84;;;14.46;100.00
8286;BME280;4181;43.416;24.598;2023-02-20T06:18:25;100499.34;;;14.55;100.00
8286;BME280;4181;43.416;24.598;2023-02-20T06:20:51;100512.91;;;14.82;100.00
8286;BME280;4181;43.416;24.598;2023-02-20T06:23:16;100525.59;;;15.03;100.00
8286;BME280;4181;43.416;24.598;2023-02-20T06:25:42;100506.88;;;14.85;100.00
8286;BME280;4181;43.416;24.598;2023-02-20T06:28:07;100522.28;;;15.01;100.00
8286;BME280;4181;43.416;24.598;2023-02-20T06:30:33;100531.41;;;15.16;100.00
8286;BME280;4181;43.416;24.598;2023-02-20T06:32:58;100526.53;;;15.44;100.00
8286;BME280;4181;43.416;24.598;2023-02-20T06:35:24;100531.22;;;15.63;100.00
8286;BME280;4181;43.416;24.598;2023-02-20T06:37:52;100536.44;;;15.75;100.00
8286;BME280;4181;43.416;24.598;2023-02-20T06:40:18;100535.59;;;15.89;100.00
8286;BME280;4181;43.416;24.598;2023-02-20T06:42:43;100511.38;;;15.91;100.00
8286;BME280;4181;43.416;24.598;2023-02-20T06:45:09;100534.50;;;15.95;100.00
8286;BME280;4181;43.416;24.598;2023-02-20T06:47:35;100541.91;;;16.20;100.00
8286;BME280;4181;43.416;24.598;2023-02-20T06:50:02;100542.16;;;16.28;100.00
8286;BME280;4181;43.416;24.598;2023-02-20T06:52:27;100520.13;;;16.28;100.00
8286;BME280;4181;43.416;24.598;2023-02-20T06:54:53;100541.31;;;16.33;100.00
8286;BME280;4181;43.416;24.598;2023-02-20T06:57:19;100542.72;;;16.25;100.00
8286;BME280;4181;43.416;24.598;2023-02-20T06:59:45;100561.47;;;16.13;100.00
8286;BME280;4181;43.416;24.598;2023-02-20T07:02:13;100572.50;;;15.83;100.00
8286;BME280;4181;43.416;24.598;2023-02-20T07:04:39;100579.34;;;15.71;100.00
8286;BME280;4181;43.416;24.598;2023-02-20T07:07:05;100592.31;;;15.80;100.00
8286;BME280;4181;43.416;24.598;2023-02-20T07:09:30;100592.03;;;15.87;100.00
8286;BME280;4181;43.416;24.598;2023-02-20T07:11:56;100577.97;;;15.73;100.00
8286;BME280;4181;43.416;24.598;2023-02-20T07:14:21;100605.50;;;15.73;100.00
8286;BME280;4181;43.416;24.598;2023-02-20T07:16:47;100615.94;;;15.61;100.00
8286;BME280;4181;43.416;24.598;2023-02-20T07:19:12;100603.28;;;15.60;100.00
8286;BME280;4181;43.416;24.598;2023-02-20T07:21:38;100585.31;;;15.33;100.00
8286;BME280;4181;43.416;24.598;2023-02-20T07:24:04;100610.97;;;15.48;100.00
8286;BME280;4181;43.416;24.598;2023-02-20T07:26:30;100617.56;;;15.42;100.00
8286;BME280;4181;43.416;24.598;2023-02-20T07:28:57;100628.00;;;15.40;100.00
8286;BME280;4181;43.416;24.598;2023-02-20T07:31:23;100621.25;;;15.11;100.00
8286;BME280;4181;43.416;24.598;2023-02-20T07:33:49;100636.69;;;15.17;100.00
8286;BME280;4181;43.416;24.598;2023-02-20T07:36:15;100614.06;;;15.00;100.00
8286;BME280;4181;43.416;24.598;2023-02-20T07:38:41;100655.06;;;15.11;100.00
8286;BME280;4181;43.416;24.598;2023-02-20T07:41:08;100639.16;;;15.18;100.00
8286;BME280;4181;43.416;24.598;2023-02-20T07:43:34;100648.88;;;15.41;100.00
8286;BME280;4181;43.416;24.598;2023-02-20T07:46:00;100658.69;;;15.22;100.00
8286;BME280;4181;43.416;24.598;2023-02-20T07:48:25;100641.69;;;15.30;100.00
8286;BME280;4181;43.416;24.598;2023-02-20T07:50:51;100645.16;;;15.15;100.00
8286;BME280;4181;43.416;24.598;2023-02-20T07:53:18;100668.28;;;15.19;100.00
8286;BME280;4181;43.416;24.598;2023-02-20T07:55:44;100663.00;;;15.03;100.00
8286;BME280;4181;43.416;24.598;2023-02-20T07:58:10;100669.50;;;14.82;100.00
8286;BME280;4181;43.416;24.598;2023-02-20T08:00:35;100669.19;;;14.37;100.00
8286;BME280;4181;43.416;24.598;2023-02-20T08:03:01;100668.66;;;14.40;100.00
8286;BME280;4181;43.416;24.598;2023-02-20T08:05:27;100671.03;;;14.68;100.00
8286;BME280;4181;43.416;24.598;2023-02-20T08:07:54;100683.13;;;14.67;100.00
8286;BME280;4181;43.416;24.598;2023-02-20T08:10:23;100679.34;;;14.78;100.00
8286;BME280;4181;43.416;24.598;2023-02-20T08:12:50;100687.16;;;15.01;100.00
8286;BME280;4181;43.416;24.598;2023-02-20T08:15:19;100666.34;;;15.10;100.00
8286;BME280;4181;43.416;24.598;2023-02-20T08:17:45;100657.00;;;15.16;100.00
8286;BME280;4181;43.416;24.598;2023-02-20T08:20:11;100653.69;;;15.14;100.00
8286;BME280;4181;43.416;24.598;2023-02-20T08:22:37;100651.81;;;15.19;100.00
8286;BME280;4181;43.416;24.598;2023-02-20T08:25:03;100658.72;;;15.27;100.00
8286;BME280;4181;43.416;24.598;2023-02-20T08:27:30;100660.75;;;15.52;100.00
8286;BME280;4181;43.416;24.598;2023-02-20T08:29:56;100636.81;;;15.57;100.00
8286;BME280;4181;43.416;24.598;2023-02-20T08:32:22;100642.38;;;15.92;100.00
8286;BME280;4181;43.416;24.598;2023-02-20T08:34:48;100635.78;;;16.18;100.00
8286;BME280;4181;43.416;24.598;2023-02-20T08:37:13;100637.72;;;16.23;100.00
8286;BME280;4181;43.416;24.598;2023-02-20T08:39:39;100642.66;;;16.31;100.00
8286;BME280;4181;43.416;24.598;2023-02-20T08:42:04;100639.09;;;16.61;100.00
8286;BME280;4181;43.416;24.598;2023-02-20T08:44:30;100610.06;;;16.88;100.00
8286;BME280;4181;43.416;24.598;2023-02-20T08:46:55;100611.09;;;17.07;100.00
8286;BME280;4181;43.416;24.598;2023-02-20T08:49:21;100617.50;;;17.51;100.00
8286;BME280;4181;43.416;24.598;2023-02-20T08:51:47;100628.31;;;17.87;100.00
8286;BME280;4181;43.416;24.598;2023-02-20T08:54:14;100621.78;;;18.06;100.00
8286;BME280;4181;43.416;24.598;2023-02-20T08:56:43;100625.59;;;18.15;100.00
8286;BME280;4181;43.416;24.598;2023-02-20T08:59:09;100632.56;;;18.36;100.00
8286;BME280;4181;43.416;24.598;2023-02-20T09:01:34;100620.78;;;18.31;100.00
8286;BME280;4181;43.416;24.598;2023-02-20T09:04:00;100634.19;;;18.47;100.00
8286;BME280;4181;43.416;24.598;2023-02-20T09:06:27;100619.09;;;18.63;100.00
8286;BME280;4181;43.416;24.598;2023-02-20T09:08:53;100621.13;;;18.53;100.00
8286;BME280;4181;43.416;24.598;2023-02-20T09:11:19;100629.50;;;18.95;100.00
8286;BME280;4181;43.416;24.598;2023-02-20T09:13:47;100638.75;;;18.85;100.00
8286;BME280;4181;43.416;24.598;2023-02-20T09:16:15;100636.34;;;19.03;100.00
8286;BME280;4181;43.416;24.598;2023-02-20T09:18:43;100616.78;;;19.18;100.00
8286;BME280;4181;43.416;24.598;2023-02-20T09:21:10;100631.97;;;19.44;100.00
8286;BME280;4181;43.416;24.598;2023-02-20T09:23:37;100608.38;;;19.46;100.00
8286;BME280;4181;43.416;24.598;2023-02-20T09:26:03;100627.59;;;19.38;100.00
8286;BME280;4181;43.416;24.598;2023-02-20T09:28:28;100628.53;;;19.52;100.00
8286;BME280;4181;43.416;24.598;2023-02-20T09:30:54;100605.84;;;19.50;100.00
8286;BME280;4181;43.416;24.598;2023-02-20T09:33:22;100628.00;;;19.68;100.00
8286;BME280;4181;43.416;24.598;2023-02-20T09:35:47;100638.69;;;19.75;100.00
8286;BME280;4181;43.416;24.598;2023-02-20T09:38:16;100645.59;;;19.59;100.00
8286;BME280;4181;43.416;24.598;2023-02-20T09:40:43;100646.88;;;19.24;100.00
8286;BME280;4181;43.416;24.598;2023-02-20T09:46:04;100636.00;;;19.70;100.00
8286;BME280;4181;43.416;24.598;2023-02-20T09:48:45;100637.38;;;19.91;100.00
8286;BME280;4181;43.416;24.598;2023-02-20T09:51:16;100632.47;;;20.01;100.00
8286;BME280;4181;43.416;24.598;2023-02-20T09:54:00;100637.84;;;20.11;100.00
8286;BME280;4181;43.416;24.598;2023-02-20T09:56:30;100639.22;;;20.14;100.00
8286;BME280;4181;43.416;24.598;2023-02-20T10:01:33;100642.09;;;20.41;100.00
8286;BME280;4181;43.416;24.598;2023-02-20T10:04:06;100645.47;;;20.38;100.00
8286;BME280;4181;43.416;24.598;2023-02-20T10:06:34;100643.28;;;20.35;100.00
8286;BME280;4181;43.416;24.598;2023-02-20T10:09:01;100637.75;;;20.35;100.00
8286;BME280;4181;43.416;24.598;2023-02-20T10:11:47;100641.06;;;20.37;100.00
8286;BME280;4181;43.416;24.598;2023-02-20T10:16:57;100617.06;;;20.60;100.00
8286;BME280;4181;43.416;24.598;2023-02-20T10:19:42;100634.41;;;20.20;100.00
8286;BME280;4181;43.416;24.598;2023-02-20T10:28:08;100611.44;;;20.19;100.00
8286;BME280;4181;43.416;24.598;2023-02-20T10:30:39;100615.06;;;20.14;100.00
8286;BME280;4181;43.416;24.598;2023-02-20T10:35:41;100626.41;;;19.99;100.00
8286;BME280;4181;43.416;24.598;2023-02-20T10:38:10;100627.69;;;19.88;100.00
8286;BME280;4181;43.416;24.598;2023-02-20T10:43:36;100629.09;;;20.23;100.00
8286;BME280;4181;43.416;24.598;2023-02-20T10:46:15;100625.97;;;20.43;100.00
8286;BME280;4181;43.416;24.598;2023-02-20T10:48:42;100615.44;;;20.59;100.00
8286;BME280;4181;43.416;24.598;2023-02-20T10:51:25;100632.81;;;20.32;100.00
8286;BME280;4181;43.416;24.598;2023-02-20T10:54:00;100636.97;;;19.97;100.00
8286;BME280;4181;43.416;24.598;2023-02-20T10:56:45;100629.78;;;20.15;100.00
8286;BME280;4181;43.416;24.598;2023-02-20T10:59:43;100632.09;;;20.08;100.00
8286;BME280;4181;43.416;24.598;2023-02-20T11:02:18;100638.94;;;20.16;100.00
8286;BME280;4181;43.416;24.598;2023-02-20T11:04:56;100615.38;;;20.32;100.00
8286;BME280;4181;43.416;24.598;2023-02-20T11:07:23;100595.78;;;20.42;100.00
8286;BME280;4181;43.416;24.598;2023-02-20T11:09:49;100605.53;;;20.39;100.00
8286;BME280;4181;43.416;24.598;2023-02-20T11:12:42;100614.84;;;20.30;100.00
8286;BME280;4181;43.416;24.598;2023-02-20T11:15:11;100613.81;;;20.26;100.00
8286;BME280;4181;43.416;24.598;2023-02-20T11:17:39;100589.28;;;20.19;100.00
8286;BME280;4181;43.416;24.598;2023-02-20T11:20:05;100605.06;;;20.19;100.00
8286;BME280;4181;43.416;24.598;2023-02-20T11:22:50;100612.91;;;20.30;100.00
8286;BME280;4181;43.416;24.598;2023-02-20T11:25:20;100608.31;;;20.39;100.00
8286;BME280;4181;43.416;24.598;2023-02-20T11:27:50;100608.06;;;20.22;100.00
8286;BME280;4181;43.416;24.598;2023-02-20T11:30:29;100612.44;;;19.91;100.00
8286;BME280;4181;43.416;24.598;2023-02-20T11:35:43;100616.81;;;20.10;100.00
8286;BME280;4181;43.416;24.598;2023-02-20T11:43:30;100607.88;;;19.63;100.00
8286;BME280;4181;43.416;24.598;2023-02-20T11:48:34;100602.06;;;19.46;100.00
8286;BME280;4181;43.416;24.598;2023-02-20T11:50:59;100588.13;;;19.51;100.00
8286;BME280;4181;43.416;24.598;2023-02-20T11:53:30;100584.38;;;19.42;100.00
8286;BME280;4181;43.416;24.598;2023-02-20T11:56:16;100584.53;;;19.50;100.00
8286;BME280;4181;43.416;24.598;2023-02-20T11:58:45;100591.19;;;19.31;100.00
8286;BME280;4181;43.416;24.598;2023-02-20T12:01:33;100593.91;;;19.12;100.00
8286;BME280;4181;43.416;24.598;2023-02-20T12:04:01;100585.75;;;19.21;100.00
8286;BME280;4181;43.416;24.598;2023-02-20T12:08:59;100592.09;;;19.03;100.00
8286;BME280;4181;43.416;24.598;2023-02-20T12:11:27;100606.63;;;18.89;100.00
8286;BME280;4181;43.416;24.598;2023-02-20T12:13:56;100585.44;;;19.04;100.00
8286;BME280;4181;43.416;24.598;2023-02-20T12:19:20;100586.22;;;18.85;100.00
8286;BME280;4181;43.416;24.598;2023-02-20T12:25:14;100591.97;;;18.65;100.00
8286;BME280;4181;43.416;24.598;2023-02-20T12:28:08;100604.66;;;18.66;100.00
8286;BME280;4181;43.416;24.598;2023-02-20T12:36:40;100598.16;;;18.57;100.00
8286;BME280;4181;43.416;24.598;2023-02-20T12:50:17;100617.75;;;18.27;100.00
8286;BME280;4181;43.416;24.598;2023-02-20T12:53:29;100608.41;;;18.23;100.00
8286;BME280;4181;43.416;24.598;2023-02-20T12:56:26;100614.50;;;18.20;100.00
8286;BME280;4181;43.416;24.598;2023-02-20T12:59:21;100624.31;;;18.03;100.00
8286;BME280;4181;43.416;24.598;2023-02-20T13:01:43;100625.09;;;18.08;100.00
8286;BME280;4181;43.416;24.598;2023-02-20T13:04:26;100624.00;;;18.04;100.00
8286;BME280;4181;43.416;24.598;2023-02-20T13:07:05;100629.66;;;17.94;100.00
8286;BME280;4181;43.416;24.598;2023-02-20T13:09:38;100626.09;;;17.89;100.00
8286;BME280;4181;43.416;24.598;2023-02-20T13:12:11;100624.34;;;17.64;100.00
8286;BME280;4181;43.416;24.598;2023-02-20T13:17:51;100636.50;;;17.58;100.00
8286;BME280;4181;43.416;24.598;2023-02-20T13:20:24;100634.31;;;17.55;100.00
8286;BME280;4181;43.416;24.598;2023-02-20T13:23:05;100658.09;;;17.46;100.00
8286;BME280;4181;43.416;24.598;2023-02-20T13:25:51;100654.06;;;17.18;100.00
8286;BME280;4181;43.416;24.598;2023-02-20T13:28:21;100653.19;;;17.23;100.00
8286;BME280;4181;43.416;24.598;2023-02-20T13:33:39;100645.03;;;16.98;100.00
8286;BME280;4181;43.416;24.598;2023-02-20T13:36:15;100640.06;;;17.00;100.00
8286;BME280;4181;43.416;24.598;2023-02-20T13:38:40;100632.91;;;16.99;100.00
8286;BME280;4181;43.416;24.598;2023-02-20T13:41:08;100629.81;;;17.10;100.00
8286;BME280;4181;43.416;24.598;2023-02-20T13:43:35;100605.56;;;17.12;100.00
8286;BME280;4181;43.416;24.598;2023-02-20T13:53:54;100625.19;;;16.96;100.00
8286;BME280;4181;43.416;24.598;2023-02-20T13:58:56;100619.16;;;16.89;100.00
8286;BME280;4181;43.416;24.598;2023-02-20T14:01:22;100624.69;;;16.84;100.00
8286;BME280;4181;43.416;24.598;2023-02-20T14:04:02;100629.94;;;16.80;100.00
8286;BME280;4181;43.416;24.598;2023-02-20T14:06:28;100621.13;;;16.68;100.00
8286;BME280;4181;43.416;24.598;2023-02-20T14:09:07;100637.72;;;16.53;100.00
8286;BME280;4181;43.416;24.598;2023-02-20T14:11:37;100646.78;;;16.64;100.00
8286;BME280;4181;43.416;24.598;2023-02-20T14:14:08;100611.00;;;16.49;100.00
8286;BME280;4181;43.416;24.598;2023-02-20T14:16:36;100635.78;;;16.54;100.00
8286;BME280;4181;43.416;24.598;2023-02-20T14:19:26;100638.81;;;16.52;100.00
8286;BME280;4181;43.416;24.598;2023-02-20T14:21:52;100631.91;;;16.39;100.00
8286;BME280;4181;43.416;24.598;2023-02-20T14:24:26;100634.94;;;16.33;100.00
8286;BME280;4181;43.416;24.598;2023-02-20T14:26:53;100645.13;;;16.17;100.00
8286;BME280;4181;43.416;24.598;2023-02-20T14:29:29;100634.69;;;16.09;100.00
8286;BME280;4181;43.416;24.598;2023-02-20T14:31:57;100641.84;;;15.90;100.00
8286;BME280;4181;43.416;24.598;2023-02-20T14:42:17;100629.16;;;15.79;100.00
8286;BME280;4181;43.416;24.598;2023-02-20T14:44:47;100652.56;;;15.87;100.00
8286;BME280;4181;43.416;24.598;2023-02-20T14:47:15;100643.75;;;15.80;100.00
8286;BME280;4181;43.416;24.598;2023-02-20T14:49:42;100660.50;;;15.68;100.00
8286;BME280;4181;43.416;24.598;2023-02-20T14:54:55;100659.09;;;15.61;100.00
8286;BME280;4181;43.416;24.598;2023-02-20T14:57:21;100652.22;;;15.53;100.00